Time;durP1;ratioP1;P1;durP2;ratioP2;P2;SDS_P1;SDS_P2;PMS_P1;PMS_P2;Temp;Humidity;BMP_temperature;BMP_pressure;BME280_temperature;BME280_humidity;BME280_pressure;Samples;Min_cycle;Max_cycle;Signal;HPM_P1;HPM_P2
2021/05/16 00:01:16;;;;;;;1.25;0.90;;;21.30;57.30;;;;;;5111933;28;20037;-42
2021/05/16 00:03:42;;;;;;;2.30;1.00;;;21.30;57.30;;;;;;5112306;28;20031;-42
2021/05/16 00:06:07;;;;;;;2.00;1.17;;;21.30;57.30;;;;;;5112220;28;20512;-41
2021/05/16 00:08:33;;;;;;;1.85;1.10;;;21.30;57.30;;;;;;5114184;28;20023;-40
2021/05/16 00:10:59;;;;;;;1.42;1.13;;;21.30;57.30;;;;;;5111214;28;20024;-41
2021/05/16 00:13:24;;;;;;;2.30;1.20;;;21.30;57.30;;;;;;5111404;28;20038;-41
2021/05/16 00:15:50;;;;;;;1.00;0.90;;;21.30;57.40;;;;;;5111491;28;20035;-41
2021/05/16 00:18:16;;;;;;;1.85;1.20;;;21.30;57.30;;;;;;5109651;28;20034;-41
2021/05/16 00:20:41;;;;;;;1.63;1.30;;;21.30;57.30;;;;;;5112981;28;20489;-41
2021/05/16 00:23:07;;;;;;;2.15;1.10;;;21.40;57.30;;;;;;5110771;28;20028;-41
2021/05/16 00:25:33;;;;;;;2.33;1.02;;;21.30;57.20;;;;;;5112177;28;20039;-42
2021/05/16 00:27:59;;;;;;;1.30;1.20;;;21.30;57.30;;;;;;5111643;28;20099;-40
2021/05/16 00:30:25;;;;;;;1.30;1.20;;;21.30;57.10;;;;;;5109755;28;20107;-43
2021/05/16 00:32:52;;;;;;;1.70;1.20;;;21.30;57.30;;;;;;5111891;28;20034;-41
2021/05/16 00:35:19;;;;;;;1.48;0.90;;;21.30;57.30;;;;;;5114595;28;20042;-42
2021/05/16 00:37:45;;;;;;;1.52;1.10;;;21.30;57.20;;;;;;5093335;28;20071;-43
2021/05/16 00:40:11;;;;;;;1.20;1.10;;;21.30;57.90;;;;;;5111312;28;20043;-41
2021/05/16 00:42:36;;;;;;;1.38;1.10;;;21.30;57.30;;;;;;5112543;28;20074;-43
2021/05/16 00:45:09;;;;;;;1.08;0.85;;;21.30;57.20;;;;;;5109815;28;20450;-40
2021/05/16 00:47:35;;;;;;;1.80;0.93;;;21.30;57.30;;;;;;5113055;28;20045;-43
2021/05/16 00:50:00;;;;;;;1.27;0.98;;;21.30;57.30;;;;;;5111354;28;20121;-42
2021/05/16 00:52:26;;;;;;;1.67;1.30;;;21.30;57.20;;;;;;5109296;28;20037;-43
2021/05/16 00:54:53;;;;;;;1.83;1.50;;;21.30;57.30;;;;;;5109659;28;20482;-42
2021/05/16 00:57:18;;;;;;;1.40;1.20;;;21.20;57.20;;;;;;5111281;28;20020;-43
2021/05/16 00:59:44;;;;;;;1.80;1.20;;;21.20;57.30;;;;;;5112299;28;20607;-40
2021/05/16 01:02:10;;;;;;;1.55;1.15;;;21.20;57.30;;;;;;5111266;28;20019;-46
2021/05/16 01:04:36;;;;;;;1.10;0.98;;;21.20;57.20;;;;;;5092877;28;20020;-40
2021/05/16 01:07:02;;;;;;;1.38;1.17;;;21.20;57.20;;;;;;5110964;28;20477;-42
2021/05/16 01:09:28;;;;;;;2.05;1.20;;;21.20;57.30;;;;;;5109085;28;20016;-44
2021/05/16 01:11:53;;;;;;;2.03;1.00;;;21.20;57.30;;;;;;5092120;28;20031;-40
2021/05/16 01:14:29;;;;;;;1.80;1.27;;;21.20;57.30;;;;;;5090846;28;20380;-43
2021/05/16 01:16:55;;;;;;;1.50;1.27;;;21.20;57.30;;;;;;5090396;28;20112;-40
2021/05/16 01:19:20;;;;;;;1.25;1.15;;;21.20;57.30;;;;;;5104343;28;20111;-43
2021/05/16 01:21:46;;;;;;;2.45;1.15;;;21.20;57.30;;;;;;5110863;28;20012;-43
2021/05/16 01:24:16;;;;;;;1.08;0.98;;;21.20;57.30;;;;;;5110432;28;20546;-41
2021/05/16 01:26:45;;;;;;;1.27;1.00;;;21.20;57.30;;;;;;5111847;28;20028;-42
2021/05/16 01:29:11;;;;;;;1.45;1.20;;;21.20;57.30;;;;;;5112254;28;20027;-40
2021/05/16 01:31:37;;;;;;;1.30;1.20;;;21.20;58.00;;;;;;5108829;28;20032;-40
2021/05/16 01:34:03;;;;;;;1.75;1.13;;;21.20;57.30;;;;;;5109418;28;20486;-40
2021/05/16 01:36:29;;;;;;;1.45;1.25;;;21.20;57.30;;;;;;5109462;28;20088;-41
2021/05/16 01:38:54;;;;;;;1.92;1.02;;;21.20;57.30;;;;;;5091476;28;20040;-41
2021/05/16 01:41:20;;;;;;;1.25;1.05;;;21.20;57.30;;;;;;5111944;28;20031;-41
2021/05/16 01:43:47;;;;;;;1.60;1.25;;;21.20;57.40;;;;;;5110309;28;20032;-41
2021/05/16 01:46:14;;;;;;;1.17;0.80;;;21.20;57.30;;;;;;5109990;28;20027;-41
2021/05/16 01:48:40;;;;;;;0.75;0.73;;;21.20;57.40;;;;;;5109970;28;20024;-40
2021/05/16 01:51:06;;;;;;;1.77;1.00;;;21.20;57.30;;;;;;5110169;28;20032;-41
2021/05/16 01:53:31;;;;;;;1.83;1.15;;;21.20;57.20;;;;;;5094324;28;20035;-39
2021/05/16 01:55:57;;;;;;;1.27;0.82;;;21.20;57.30;;;;;;5109106;28;20039;-41
2021/05/16 01:58:23;;;;;;;1.27;0.88;;;21.20;57.20;;;;;;5089331;28;20721;-40
2021/05/16 02:00:48;;;;;;;1.98;1.02;;;21.20;57.20;;;;;;5092673;28;20149;-39
2021/05/16 02:03:14;;;;;;;1.50;0.80;;;21.10;57.20;;;;;;5108173;28;20024;-40
2021/05/16 02:05:40;;;;;;;1.30;1.08;;;21.20;57.30;;;;;;5075767;28;20106;-40
2021/05/16 02:08:06;;;;;;;0.90;0.90;;;21.20;57.30;;;;;;5108594;28;20028;-39
2021/05/16 02:10:31;;;;;;;2.72;1.10;;;21.20;57.30;;;;;;5107601;28;20520;-39
2021/05/16 02:12:57;;;;;;;1.33;0.98;;;21.20;57.80;;;;;;5108977;28;20047;-40
2021/05/16 02:15:23;;;;;;;1.48;0.77;;;21.10;57.30;;;;;;5109825;28;20035;-36
2021/05/16 02:17:50;;;;;;;1.00;0.90;;;21.20;57.30;;;;;;5109740;28;20023;-39
2021/05/16 02:20:17;;;;;;;1.95;1.10;;;21.10;57.20;;;;;;5112584;28;20092;-39
2021/05/16 02:22:43;;;;;;;1.30;1.10;;;21.10;57.20;;;;;;5090105;28;20033;-40
2021/05/16 02:25:09;;;;;;;1.38;1.10;;;21.10;57.20;;;;;;5109712;28;20049;-40
2021/05/16 02:27:35;;;;;;;1.55;0.93;;;21.20;57.30;;;;;;5104320;28;20408;-39
2021/05/16 02:30:02;;;;;;;1.30;1.05;;;21.10;57.20;;;;;;5103354;28;20106;-47
2021/05/16 02:32:28;;;;;;;1.00;0.88;;;21.10;57.20;;;;;;5100720;28;20012;-41
2021/05/16 02:34:53;;;;;;;1.13;0.93;;;21.10;57.20;;;;;;5109307;28;20043;-41
2021/05/16 02:37:19;;;;;;;1.70;0.80;;;21.10;57.30;;;;;;5106493;28;20030;-42
2021/05/16 02:39:44;;;;;;;1.00;0.90;;;21.10;57.20;;;;;;5108753;28;20470;-40
2021/05/16 02:42:10;;;;;;;1.08;0.98;;;21.10;57.20;;;;;;5108332;28;20027;-40
2021/05/16 02:44:35;;;;;;;1.02;0.90;;;21.10;57.90;;;;;;5109448;28;20103;-38
2021/05/16 02:47:02;;;;;;;0.95;0.70;;;21.10;57.20;;;;;;5108113;28;20433;-41
2021/05/16 02:49:29;;;;;;;1.73;0.90;;;21.10;57.90;;;;;;5108571;28;20032;-42
2021/05/16 02:51:55;;;;;;;2.10;1.13;;;21.10;57.30;;;;;;5107683;28;20118;-41
2021/05/16 02:54:20;;;;;;;1.00;0.65;;;21.10;57.30;;;;;;5087809;28;20505;-43
2021/05/16 02:56:46;;;;;;;1.10;0.80;;;21.10;57.30;;;;;;5109409;28;20077;-39
2021/05/16 02:59:11;;;;;;;0.82;0.77;;;21.10;57.20;;;;;;5110276;28;20375;-43
2021/05/16 03:01:37;;;;;;;0.95;0.80;;;21.10;57.30;;;;;;5107876;28;20102;-41
2021/05/16 03:04:03;;;;;;;1.10;0.80;;;21.10;57.30;;;;;;5106686;28;20507;-40
2021/05/16 03:06:28;;;;;;;1.48;0.82;;;21.10;57.40;;;;;;5107101;28;20028;-41
2021/05/16 03:08:54;;;;;;;0.80;0.73;;;21.10;57.30;;;;;;5106849;28;20034;-40
2021/05/16 03:11:20;;;;;;;0.88;0.70;;;21.10;57.30;;;;;;5110730;28;20031;-40
2021/05/16 03:13:45;;;;;;;0.90;0.80;;;21.10;57.30;;;;;;5108072;28;20060;-43
2021/05/16 03:16:11;;;;;;;1.50;0.93;;;21.10;57.30;;;;;;5105767;28;20053;-40
2021/05/16 03:18:36;;;;;;;1.02;0.80;;;21.10;57.30;;;;;;5108627;28;20019;-42
2021/05/16 03:21:02;;;;;;;1.27;0.90;;;21.10;57.20;;;;;;5105442;28;20063;-40
2021/05/16 03:23:27;;;;;;;1.10;0.93;;;21.10;57.30;;;;;;5111876;28;20016;-42
2021/05/16 03:25:57;;;;;;;0.95;0.80;;;21.10;57.30;;;;;;5108047;28;20118;-40
2021/05/16 03:28:23;;;;;;;1.17;0.80;;;21.10;57.40;;;;;;5107867;28;20028;-42
2021/05/16 03:30:49;;;;;;;0.93;0.68;;;21.10;57.40;;;;;;5106084;28;20071;-46
2021/05/16 03:33:14;;;;;;;1.30;1.08;;;21.10;57.40;;;;;;5089546;28;20164;-41
2021/05/16 03:35:40;;;;;;;1.20;0.88;;;21.00;57.30;;;;;;5109108;28;20040;-43
2021/05/16 03:38:05;;;;;;;1.23;1.00;;;21.10;57.40;;;;;;5109065;28;20055;-43
2021/05/16 03:40:31;;;;;;;1.08;0.82;;;21.00;57.30;;;;;;5103176;28;20740;-43
2021/05/16 03:42:56;;;;;;;1.08;0.95;;;21.00;57.90;;;;;;5102680;28;20043;-39
2021/05/16 03:45:22;;;;;;;1.20;0.80;;;21.10;57.30;;;;;;5098709;28;20040;-43
2021/05/16 03:47:47;;;;;;;0.90;0.60;;;21.10;57.30;;;;;;5105796;28;20058;-41
2021/05/16 03:50:13;;;;;;;1.17;0.90;;;21.00;57.30;;;;;;5088994;28;20031;-42
2021/05/16 03:52:39;;;;;;;1.00;0.80;;;21.10;57.30;;;;;;5101608;28;20022;-44
2021/05/16 03:55:06;;;;;;;2.15;0.80;;;21.00;57.30;;;;;;5081706;28;20051;-42
2021/05/16 03:57:32;;;;;;;1.20;0.63;;;21.00;57.30;;;;;;5101058;28;20026;-43
2021/05/16 03:59:58;;;;;;;0.73;0.60;;;21.00;57.30;;;;;;5105317;28;20028;-44
2021/05/16 04:02:23;;;;;;;1.00;0.90;;;21.00;57.30;;;;;;5094556;28;20024;-43
2021/05/16 04:04:49;;;;;;;1.20;0.93;;;21.10;57.30;;;;;;5107297;28;20500;-40
2021/05/16 04:07:14;;;;;;;1.13;0.80;;;21.00;57.30;;;;;;5099449;28;20012;-40
2021/05/16 04:09:40;;;;;;;1.05;0.80;;;21.00;57.30;;;;;;5106856;28;20451;-43
2021/05/16 04:12:06;;;;;;;1.15;1.00;;;21.00;57.40;;;;;;5104200;28;20481;-42
2021/05/16 04:14:31;;;;;;;0.88;0.60;;;21.00;57.30;;;;;;5109326;28;20132;-40
2021/05/16 04:16:57;;;;;;;1.17;0.70;;;21.00;57.30;;;;;;5111230;28;20097;-40
2021/05/16 04:19:23;;;;;;;1.48;0.80;;;21.00;57.30;;;;;;5108514;28;20024;-40
2021/05/16 04:21:48;;;;;;;0.73;0.60;;;21.00;57.30;;;;;;5110559;28;20647;-40
2021/05/16 04:24:14;;;;;;;0.80;0.70;;;21.00;57.30;;;;;;5107249;28;20027;-41
2021/05/16 04:26:39;;;;;;;0.93;0.70;;;21.00;57.30;;;;;;5112730;28;20478;-40
2021/05/16 04:29:05;;;;;;;1.02;0.73;;;21.00;57.30;;;;;;5111294;28;20541;-40
2021/05/16 04:31:31;;;;;;;1.05;0.85;;;21.00;57.40;;;;;;5109144;28;20024;-41
2021/05/16 04:33:56;;;;;;;2.17;0.88;;;21.00;57.30;;;;;;5092428;28;20032;-41
2021/05/16 04:36:22;;;;;;;1.20;0.90;;;21.00;58.10;;;;;;5109006;28;20036;-40
2021/05/16 04:38:48;;;;;;;1.70;0.63;;;21.00;57.50;;;;;;5110524;28;20066;-42
2021/05/16 04:41:14;;;;;;;0.85;0.50;;;21.00;57.40;;;;;;5113257;28;20027;-40
2021/05/16 04:43:40;;;;;;;1.05;0.65;;;21.00;57.30;;;;;;5110997;28;20031;-42
2021/05/16 04:46:06;;;;;;;0.77;0.47;;;21.00;57.40;;;;;;5092167;28;20421;-40
2021/05/16 04:48:32;;;;;;;1.13;0.70;;;21.00;57.30;;;;;;5108704;28;20016;-43
2021/05/16 04:50:57;;;;;;;1.40;0.70;;;21.00;57.40;;;;;;5109938;28;20137;-40
2021/05/16 04:53:27;;;;;;;0.77;0.65;;;21.00;57.30;;;;;;5112110;28;20098;-42
2021/05/16 04:55:52;;;;;;;0.90;0.70;;;21.00;57.30;;;;;;5110485;28;20043;-41
2021/05/16 04:58:18;;;;;;;1.20;0.70;;;21.00;57.30;;;;;;5108662;28;20119;-40
2021/05/16 05:00:43;;;;;;;0.70;0.65;;;20.90;57.40;;;;;;5110210;28;20020;-43
2021/05/16 05:03:09;;;;;;;0.88;0.57;;;21.00;57.40;;;;;;5107397;28;20031;-40
2021/05/16 05:05:35;;;;;;;0.85;0.75;;;21.00;57.40;;;;;;5074731;28;20028;-46
2021/05/16 05:08:00;;;;;;;1.02;0.80;;;21.00;57.40;;;;;;5089892;28;20027;-42
2021/05/16 05:10:26;;;;;;;0.70;0.65;;;20.90;57.40;;;;;;5103163;28;20035;-41
2021/05/16 05:12:52;;;;;;;0.73;0.70;;;20.90;57.40;;;;;;5110045;28;20401;-42
2021/05/16 05:15:17;;;;;;;0.98;0.50;;;20.90;57.40;;;;;;5107635;28;20067;-42
2021/05/16 05:17:43;;;;;;;0.47;0.47;;;20.90;57.40;;;;;;5111135;28;20039;-42
2021/05/16 05:20:09;;;;;;;0.65;0.50;;;20.90;57.40;;;;;;5110969;28;20020;-41
2021/05/16 05:22:35;;;;;;;1.77;0.60;;;21.00;57.30;;;;;;5110424;28;20024;-40
2021/05/16 05:25:00;;;;;;;0.60;0.52;;;21.00;57.40;;;;;;5091367;28;20418;-39
2021/05/16 05:27:26;;;;;;;1.23;0.70;;;21.00;57.40;;;;;;5108455;28;20446;-40
2021/05/16 05:29:51;;;;;;;0.70;0.65;;;20.90;57.30;;;;;;5092281;28;20032;-45
2021/05/16 05:32:17;;;;;;;0.70;0.50;;;21.00;57.40;;;;;;5088463;28;20154;-40
2021/05/16 05:34:42;;;;;;;1.00;0.60;;;20.90;57.30;;;;;;5106535;28;20119;-42
2021/05/16 05:37:08;;;;;;;1.98;0.80;;;20.90;58.00;;;;;;5089629;28;20026;-42
2021/05/16 05:39:34;;;;;;;1.10;0.80;;;20.90;57.30;;;;;;5090465;28;20048;-41
2021/05/16 05:41:59;;;;;;;0.60;0.57;;;20.90;57.30;;;;;;5089233;28;20029;-44
2021/05/16 05:44:25;;;;;;;2.35;0.68;;;20.90;58.00;;;;;;5090784;28;20024;-40
2021/05/16 05:46:50;;;;;;;1.25;0.80;;;20.90;57.30;;;;;;5088593;28;20028;-42
2021/05/16 05:49:16;;;;;;;1.85;0.70;;;20.90;57.40;;;;;;5086000;28;20032;-41
2021/05/16 05:51:41;;;;;;;1.25;0.50;;;20.90;57.40;;;;;;5087980;28;20047;-40
2021/05/16 05:54:07;;;;;;;0.82;0.60;;;20.90;57.40;;;;;;5088950;28;20029;-41
2021/05/16 05:56:34;;;;;;;0.60;0.60;;;20.90;57.40;;;;;;5090969;28;20036;-39
2021/05/16 05:59:00;;;;;;;0.82;0.60;;;20.90;57.40;;;;;;5089105;28;20534;-40
2021/05/16 06:01:26;;;;;;;1.20;0.60;;;20.90;57.40;;;;;;5081410;28;20119;-40
2021/05/16 06:03:51;;;;;;;0.63;0.40;;;20.90;57.40;;;;;;5081723;28;20554;-39
2021/05/16 06:06:17;;;;;;;1.85;0.90;;;20.90;57.40;;;;;;5084186;28;20390;-43
2021/05/16 06:08:43;;;;;;;0.82;0.50;;;20.90;57.40;;;;;;5089014;28;20032;-41
2021/05/16 06:11:08;;;;;;;0.70;0.60;;;20.90;57.40;;;;;;5087006;28;20758;-41
2021/05/16 06:13:34;;;;;;;0.60;0.60;;;20.90;57.40;;;;;;5081207;28;20028;-40
2021/05/16 06:16:00;;;;;;;0.70;0.70;;;20.90;57.50;;;;;;5076532;28;20032;-41
2021/05/16 06:18:25;;;;;;;1.17;0.57;;;20.90;57.40;;;;;;5063623;28;20044;-40
2021/05/16 06:20:51;;;;;;;0.90;0.70;;;20.90;57.50;;;;;;5075539;28;20036;-41
2021/05/16 06:23:18;;;;;;;1.02;0.60;;;20.90;57.50;;;;;;5084874;28;20043;-41
2021/05/16 06:25:47;;;;;;;0.60;0.60;;;21.10;57.40;;;;;;5079370;28;20095;-39
2021/05/16 06:28:13;;;;;;;0.80;0.68;;;21.20;57.00;;;;;;5083749;28;20397;-40
2021/05/16 06:30:38;;;;;;;0.80;0.60;;;21.20;56.80;;;;;;5083679;28;20486;-42
2021/05/16 06:33:04;;;;;;;0.88;0.75;;;21.20;56.70;;;;;;5064560;28;20543;-42
2021/05/16 06:35:30;;;;;;;1.23;0.68;;;21.30;57.30;;;;;;5073655;28;20090;-42
2021/05/16 06:37:55;;;;;;;0.98;0.70;;;21.40;56.30;;;;;;5083329;28;20043;-41
2021/05/16 06:40:21;;;;;;;0.82;0.65;;;21.50;56.10;;;;;;5101227;28;20032;-42
2021/05/16 06:42:46;;;;;;;0.85;0.82;;;21.50;55.90;;;;;;5094964;28;20794;-44
2021/05/16 06:45:13;;;;;;;0.93;0.60;;;21.40;56.30;;;;;;5079817;28;20028;-43
2021/05/16 06:47:38;;;;;;;1.10;0.80;;;21.20;56.80;;;;;;5100346;28;20020;-45
2021/05/16 06:50:05;;;;;;;0.80;0.43;;;21.10;57.00;;;;;;5098453;28;20142;-38
2021/05/16 06:52:31;;;;;;;1.33;0.60;;;21.10;57.10;;;;;;5095998;28;20028;-41
2021/05/16 06:54:56;;;;;;;1.10;0.80;;;21.10;57.30;;;;;;5077306;28;20039;-44
2021/05/16 06:57:22;;;;;;;0.82;0.60;;;21.00;57.30;;;;;;5093512;28;20036;-39
2021/05/16 06:59:48;;;;;;;0.73;0.50;;;21.00;57.40;;;;;;5093580;28;20394;-42
2021/05/16 07:02:13;;;;;;;1.30;0.88;;;21.00;57.50;;;;;;5095279;28;20085;-41
2021/05/16 07:04:40;;;;;;;1.10;0.80;;;21.00;58.00;;;;;;5102906;28;20028;-39
2021/05/16 07:07:06;;;;;;;0.90;0.45;;;21.00;57.50;;;;;;5082459;28;20039;-41
2021/05/16 07:09:32;;;;;;;0.80;0.40;;;21.10;57.50;;;;;;5099546;28;20035;-42
2021/05/16 07:11:57;;;;;;;1.77;0.77;;;21.00;57.40;;;;;;5108291;28;20031;-41
2021/05/16 07:14:23;;;;;;;0.73;0.50;;;21.00;57.40;;;;;;5107629;28;20031;-41
2021/05/16 07:16:48;;;;;;;1.55;0.60;;;21.00;57.40;;;;;;5106079;28;20035;-40
2021/05/16 07:19:14;;;;;;;1.30;0.90;;;21.00;57.30;;;;;;5103486;28;20024;-41
2021/05/16 07:21:40;;;;;;;0.70;0.60;;;21.00;57.40;;;;;;5103101;28;20378;-41
2021/05/16 07:24:06;;;;;;;1.02;0.90;;;21.00;57.40;;;;;;5103616;28;20027;-41
2021/05/16 07:26:31;;;;;;;0.98;0.70;;;21.10;57.40;;;;;;5105673;28;20043;-40
2021/05/16 07:28:57;;;;;;;0.65;0.60;;;21.10;58.10;;;;;;5081912;28;20024;-42
2021/05/16 07:31:23;;;;;;;1.08;0.88;;;21.10;57.30;;;;;;5103590;28;20080;-40
2021/05/16 07:33:48;;;;;;;0.50;0.50;;;21.10;57.30;;;;;;5105024;28;20381;-42
2021/05/16 07:36:14;;;;;;;2.45;1.00;;;21.10;57.30;;;;;;5106000;28;20074;-43
2021/05/16 07:38:39;;;;;;;1.17;0.77;;;21.10;57.30;;;;;;5100528;28;20039;-44
2021/05/16 07:41:05;;;;;;;1.13;0.77;;;21.10;57.30;;;;;;5091913;28;20020;-44
2021/05/16 07:43:31;;;;;;;1.42;0.90;;;21.10;57.30;;;;;;5090759;28;20024;-39
2021/05/16 07:45:56;;;;;;;1.30;0.80;;;21.20;57.30;;;;;;5089570;28;20028;-43
2021/05/16 07:48:28;;;;;;;0.90;0.70;;;21.20;57.60;;;;;;5091144;28;20061;-41
2021/05/16 07:50:55;;;;;;;1.55;1.00;;;21.20;57.30;;;;;;5091726;28;20033;-40
2021/05/16 07:53:21;;;;;;;1.90;1.10;;;21.30;56.90;;;;;;5088938;28;20017;-43
2021/05/16 07:55:46;;;;;;;1.98;0.60;;;21.20;57.00;;;;;;5085601;28;20040;-41
2021/05/16 07:58:12;;;;;;;1.80;1.00;;;21.20;57.00;;;;;;5079680;28;20025;-40
2021/05/16 08:00:37;;;;;;;1.25;0.80;;;21.20;57.30;;;;;;5076047;28;20024;-41
2021/05/16 08:03:03;;;;;;;1.33;0.90;;;21.20;57.50;;;;;;5078018;28;20051;-41
2021/05/16 08:05:30;;;;;;;1.02;0.80;;;21.30;56.90;;;;;;5086802;28;20032;-39
2021/05/16 08:07:55;;;;;;;1.88;0.80;;;21.40;56.60;;;;;;5085482;28;20031;-39
2021/05/16 08:10:22;;;;;;;2.33;1.13;;;21.50;56.30;;;;;;5083715;28;20036;-39
2021/05/16 08:12:48;;;;;;;1.23;0.60;;;21.70;55.90;;;;;;5071447;28;20023;-40
2021/05/16 08:15:14;;;;;;;0.80;0.77;;;21.70;55.90;;;;;;5071019;28;20750;-41
2021/05/16 08:17:39;;;;;;;1.17;0.93;;;21.70;56.40;;;;;;5087664;28;20028;-39
2021/05/16 08:20:05;;;;;;;1.08;0.80;;;21.70;55.90;;;;;;5082816;28;20088;-39
2021/05/16 08:22:31;;;;;;;1.52;1.00;;;21.70;56.30;;;;;;5079273;28;20021;-41
2021/05/16 08:24:57;;;;;;;1.45;1.00;;;21.70;55.80;;;;;;5076894;28;20075;-40
2021/05/16 08:27:22;;;;;;;1.92;0.80;;;21.90;55.60;;;;;;5076502;28;20045;-41
2021/05/16 08:29:48;;;;;;;1.85;1.05;;;21.90;55.80;;;;;;5089583;28;20056;-40
2021/05/16 08:32:14;;;;;;;1.33;0.88;;;21.80;56.10;;;;;;5089925;28;20032;-40
2021/05/16 08:34:40;;;;;;;2.20;1.17;;;21.80;56.60;;;;;;5086759;28;20125;-41
2021/05/16 08:37:07;;;;;;;2.80;1.00;;;21.70;57.00;;;;;;5081766;28;20067;-40
2021/05/16 08:39:32;;;;;;;1.67;0.80;;;21.70;56.90;;;;;;5073887;28;20044;-41
2021/05/16 08:41:58;;;;;;;2.13;1.10;;;21.80;56.40;;;;;;5103728;28;20497;-42
2021/05/16 08:44:24;;;;;;;2.28;1.25;;;21.90;56.00;;;;;;5106776;28;20409;-42
2021/05/16 08:46:50;;;;;;;2.63;1.20;;;21.90;56.10;;;;;;5109692;28;20035;-44
2021/05/16 08:49:15;;;;;;;2.50;1.10;;;21.90;56.00;;;;;;5087715;28;20164;-40
2021/05/16 08:51:45;;;;;;;3.03;1.25;;;21.90;55.80;;;;;;5104339;28;20030;-39
2021/05/16 08:54:10;;;;;;;2.42;1.42;;;22.00;55.70;;;;;;5109345;28;20030;-40
2021/05/16 08:56:36;;;;;;;4.40;1.30;;;22.00;55.70;;;;;;5103356;28;20448;-40
2021/05/16 08:59:02;;;;;;;6.15;1.48;;;22.00;55.20;;;;;;5106819;28;20513;-40
2021/05/16 09:01:34;;;;;;;2.95;1.50;;;22.10;55.00;;;;;;5105336;28;20027;-41
2021/05/16 09:04:16;;;;;;;4.10;1.73;;;21.90;54.40;;;;;;5102499;28;20020;-42
2021/05/16 09:06:42;;;;;;;4.20;1.45;;;21.90;54.30;;;;;;5084157;28;20075;-42
2021/05/16 09:09:25;;;;;;;2.92;1.30;;;21.80;54.10;;;;;;5087121;28;20518;-40
2021/05/16 09:12:12;;;;;;;2.50;1.30;;;21.80;54.40;;;;;;5104641;28;20039;-40
2021/05/16 09:14:57;;;;;;;4.32;1.50;;;21.90;54.30;;;;;;5104748;28;20118;-40
2021/05/16 09:17:33;;;;;;;3.92;1.40;;;22.10;53.40;;;;;;5106724;28;20039;-42
2021/05/16 09:20:08;;;;;;;2.45;1.50;;;22.20;52.80;;;;;;5104136;28;20702;-42
2021/05/16 09:22:40;;;;;;;3.28;1.85;;;22.30;52.00;;;;;;5105558;28;20027;-40
2021/05/16 09:25:13;;;;;;;2.90;1.73;;;22.40;51.10;;;;;;5104059;28;20024;-40
2021/05/16 09:27:39;;;;;;;2.88;1.38;;;22.40;51.30;;;;;;5104558;27;20034;-41
2021/05/16 09:30:20;;;;;;;5.10;1.67;;;22.30;51.50;;;;;;5104493;28;20059;-40
2021/05/16 09:32:52;;;;;;;3.78;1.70;;;22.10;51.80;;;;;;5102799;28;20027;-39
2021/05/16 09:35:17;;;;;;;4.40;1.90;;;22.10;51.70;;;;;;4753182;28;10000506;-41
2021/05/16 09:38:02;;;;;;;5.60;1.85;;;22.10;51.20;;;;;;5108421;28;20024;-39
2021/05/16 09:40:37;;;;;;;4.03;1.50;;;22.00;51.50;;;;;;5105630;28;20471;-42
2021/05/16 09:43:06;;;;;;;2.35;1.55;;;21.90;51.90;;;;;;5101532;28;20028;-45
2021/05/16 09:46:05;;;;;;;3.08;1.70;;;21.80;51.60;;;;;;5088086;28;20019;-42
2021/05/16 09:48:38;;;;;;;3.78;1.25;;;21.70;51.80;;;;;;5040700;28;20072;-42
2021/05/16 09:51:22;;;;;;;6.30;2.35;;;21.70;52.10;;;;;;5034866;28;20152;-43
2021/05/16 09:54:07;;;;;;;7.22;1.73;;;21.70;52.30;;;;;;5034435;28;20231;-40
2021/05/16 09:56:39;;;;;;;4.07;1.70;;;21.70;52.90;;;;;;5039553;28;20076;-43
2021/05/16 09:59:08;;;;;;;3.47;1.60;;;21.70;52.70;;;;;;5042929;28;20064;-43
2021/05/16 10:01:34;;;;;;;3.63;1.58;;;21.70;52.80;;;;;;5037617;28;20175;-41
2021/05/16 10:04:01;;;;;;;7.22;1.58;;;21.70;52.80;;;;;;5033694;28;20877;-46
2021/05/16 10:06:27;;;;;;;3.17;1.40;;;21.70;53.00;;;;;;5034826;28;20044;-44
2021/05/16 10:08:53;;;;;;;3.13;1.65;;;21.60;53.20;;;;;;5031557;28;20033;-43
2021/05/16 10:11:27;;;;;;;4.93;1.90;;;21.70;54.00;;;;;;5041396;28;20411;-44
2021/05/16 10:14:14;;;;;;;2.92;1.55;;;21.70;53.20;;;;;;5040112;28;20040;-41
2021/05/16 10:16:49;;;;;;;3.65;1.70;;;21.90;53.10;;;;;;5023621;28;20041;-43
2021/05/16 10:19:30;;;;;;;1.98;1.50;;;22.10;53.30;;;;;;5015322;28;20076;-42
2021/05/16 10:22:08;;;;;;;3.90;1.50;;;22.20;53.40;;;;;;5020009;28;20032;-43
2021/05/16 10:24:47;;;;;;;2.10;1.25;;;22.30;53.30;;;;;;5077402;28;20156;-40
2021/05/16 10:27:24;;;;;;;3.25;1.73;;;22.40;53.20;;;;;;5097699;28;20028;-42
2021/05/16 10:29:57;;;;;;;2.88;1.58;;;22.40;53.20;;;;;;5069274;28;20028;-45
2021/05/16 10:32:38;;;;;;;5.23;1.67;;;22.50;53.20;;;;;;5077177;28;20073;-44
2021/05/16 10:35:04;;;;;;;4.47;1.88;;;22.50;53.30;;;;;;5093962;28;20878;-44
2021/05/16 10:37:39;;;;;;;3.60;1.75;;;22.50;54.10;;;;;;5088154;28;20050;-45
2021/05/16 10:40:29;;;;;;;2.35;1.42;;;22.50;53.70;;;;;;5094233;28;20036;-43
2021/05/16 10:43:03;;;;;;;3.42;1.70;;;22.50;53.90;;;;;;5089844;28;20033;-45
2021/05/16 10:45:29;;;;;;;;;;;22.50;54.80;;;;;;4730782;28;9999929;-46
2021/05/16 10:47:56;;;;;;;2.40;1.20;;;22.50;53.90;;;;;;5094686;28;22755;-47
2021/05/16 10:50:24;;;;;;;1.50;1.20;;;22.50;54.20;;;;;;5090793;28;20020;-43
2021/05/16 10:53:06;;;;;;;2.85;1.50;;;22.60;54.20;;;;;;5092151;28;20450;-40
2021/05/16 10:55:39;;;;;;;4.65;1.70;;;22.50;54.50;;;;;;5078777;28;20051;-37
2021/05/16 10:58:05;;;;;;;3.22;1.50;;;22.50;54.40;;;;;;5058796;28;20024;-41
2021/05/16 11:00:32;;;;;;;3.20;1.52;;;22.50;54.60;;;;;;5069178;28;20046;-41
2021/05/16 11:03:07;;;;;;;3.03;1.25;;;22.60;54.80;;;;;;5081235;28;20050;-42
2021/05/16 11:05:52;;;;;;;4.10;1.83;;;22.60;54.70;;;;;;5092516;28;20062;-42
2021/05/16 11:08:18;;;;;;;1.55;1.27;;;22.60;54.90;;;;;;5095565;28;20695;-42
2021/05/16 11:10:48;;;;;;;4.60;1.60;;;22.60;55.20;;;;;;5092641;28;20027;-40
2021/05/16 11:13:27;;;;;;;3.40;1.70;;;22.60;55.10;;;;;;5094845;28;20109;-41
2021/05/16 11:16:06;;;;;;;3.67;1.70;;;22.60;55.10;;;;;;5096596;28;20031;-42
2021/05/16 11:18:32;;;;;;;3.67;1.65;;;22.70;55.80;;;;;;5100649;28;20478;-41
2021/05/16 11:21:08;;;;;;;4.60;1.50;;;22.80;55.50;;;;;;5098145;28;20103;-41
2021/05/16 11:23:34;;;;;;;3.47;1.52;;;22.90;55.50;;;;;;5091566;28;20035;-41
2021/05/16 11:26:15;;;;;;;1.95;1.15;;;22.90;55.40;;;;;;5094762;28;20108;-42
2021/05/16 11:28:52;;;;;;;4.15;1.55;;;22.90;55.40;;;;;;5092428;28;20116;-43
2021/05/16 11:31:21;;;;;;;3.10;1.50;;;22.90;55.40;;;;;;5077894;28;20024;-40
2021/05/16 11:33:47;;;;;;;4.10;1.83;;;23.00;55.20;;;;;;5097053;28;20040;-46
2021/05/16 11:36:16;;;;;;;3.30;0.90;;;22.90;55.40;;;;;;5094296;28;20047;-44
2021/05/16 11:38:46;;;;;;;4.13;1.40;;;23.00;55.60;;;;;;5090826;28;20056;-46
2021/05/16 11:41:30;;;;;;;1.83;1.40;;;23.00;55.20;;;;;;5099425;28;20031;-47
2021/05/16 11:43:57;;;;;;;2.53;1.58;;;23.00;55.20;;;;;;5098532;28;20036;-41
2021/05/16 11:46:27;;;;;;;1.83;1.27;;;23.00;55.40;;;;;;5097762;28;20693;-42
2021/05/16 11:48:53;;;;;;;1.85;1.27;;;23.00;55.10;;;;;;5085100;28;20024;-43
2021/05/16 11:51:19;;;;;;;2.80;1.30;;;23.10;55.00;;;;;;5093155;28;20027;-45
2021/05/16 11:54:13;;;;;;;1.77;1.00;;;23.10;54.90;;;;;;5097325;28;20023;-47
2021/05/16 11:56:44;;;;;;;2.83;1.47;;;23.10;54.80;;;;;;5100331;28;20050;-44
2021/05/16 11:59:10;;;;;;;2.40;1.25;;;23.10;54.50;;;;;;5095978;28;20038;-44
2021/05/16 12:01:37;;;;;;;2.88;1.35;;;23.20;54.50;;;;;;5092800;28;20028;-44
2021/05/16 12:04:08;;;;;;;4.22;1.30;;;23.20;54.60;;;;;;5084671;28;20024;-44
2021/05/16 12:07:00;;;;;;;2.83;1.40;;;23.10;54.70;;;;;;5091812;28;20102;-48
2021/05/16 12:09:26;;;;;;;2.15;1.17;;;23.20;54.70;;;;;;5089111;28;20042;-45
2021/05/16 12:11:52;;;;;;;2.50;1.30;;;23.10;55.00;;;;;;5090187;28;20028;-40
2021/05/16 12:14:22;;;;;;;3.20;1.73;;;23.00;55.20;;;;;;5092001;28;20035;-44
2021/05/16 12:16:56;;;;;;;3.42;1.35;;;22.90;55.40;;;;;;5090678;28;20446;-46
2021/05/16 12:19:23;;;;;;;1.52;1.02;;;23.00;55.40;;;;;;5066543;28;20029;-43
2021/05/16 12:21:59;;;;;;;1.80;1.42;;;23.10;54.70;;;;;;5076658;28;20027;-41
2021/05/16 12:24:26;;;;;;;2.05;1.10;;;23.10;54.70;;;;;;5085126;28;20020;-41
2021/05/16 12:26:52;;;;;;;4.68;1.42;;;23.10;54.70;;;;;;5092020;28;20043;-41
2021/05/16 12:29:18;;;;;;;2.22;1.33;;;23.20;54.60;;;;;;5075022;28;20032;-43
2021/05/16 12:31:44;;;;;;;2.10;1.10;;;23.30;54.60;;;;;;5078976;28;20043;-45
2021/05/16 12:34:11;;;;;;;2.40;1.30;;;23.30;54.60;;;;;;5062180;28;20028;-46
2021/05/16 12:36:53;;;;;;;2.42;1.15;;;23.20;55.20;;;;;;5078202;28;20031;-42
2021/05/16 12:39:41;;;;;;;2.05;1.35;;;23.20;54.80;;;;;;5089349;28;20048;-42
2021/05/16 12:42:27;;;;;;;1.73;1.23;;;23.10;54.70;;;;;;5088553;28;20039;-45
2021/05/16 12:44:53;;;;;;;2.40;1.20;;;23.00;55.20;;;;;;5086634;28;20036;-43
2021/05/16 12:47:27;;;;;;;2.33;1.38;;;23.10;54.80;;;;;;5086632;28;20028;-44
2021/05/16 12:50:09;;;;;;;3.13;1.30;;;23.00;54.90;;;;;;5096185;28;20081;-47
2021/05/16 12:52:35;;;;;;;1.90;1.33;;;23.20;54.60;;;;;;5096298;28;20041;-42